createdAt,value
2018-11-07T00:02:27.809Z,30.45
2018-11-07T00:04:59.852Z,32.58
2018-11-07T00:07:31.988Z,29.20
2018-11-07T00:10:05.315Z,27.27
2018-11-07T00:12:37.691Z,29.65
2018-11-07T00:15:12.251Z,29.70
2018-11-07T00:17:44.309Z,30.97
2018-11-07T00:20:16.518Z,24.75
2018-11-07T00:22:48.628Z,29.32
2018-11-07T00:25:20.689Z,26.68
2018-11-07T00:27:52.781Z,27.25
2018-11-07T00:30:24.919Z,29.40
2018-11-07T00:32:57.017Z,29.18
2018-11-07T00:35:29.151Z,29.60
2018-11-07T00:38:01.371Z,31.37
2018-11-07T00:40:33.500Z,28.00
2018-11-07T00:43:05.689Z,30.45
2018-11-07T00:45:37.791Z,28.23
2018-11-07T00:48:09.882Z,30.35
2018-11-07T00:50:41.996Z,29.37
2018-11-07T00:53:14.070Z,34.75
2018-11-07T00:55:46.208Z,29.32
2018-11-07T00:58:18.308Z,28.02
2018-11-07T01:00:51.495Z,31.00
2018-11-07T01:03:23.608Z,29.72
2018-11-07T01:05:55.704Z,29.72
2018-11-07T01:08:27.849Z,30.97
2018-11-07T01:10:59.979Z,29.48
2018-11-07T01:13:32.124Z,31.68
2018-11-07T01:16:04.467Z,34.40
2018-11-07T01:18:36.734Z,30.62
2018-11-07T01:21:08.783Z,29.67
2018-11-07T01:23:41.189Z,25.90
2018-11-07T01:26:13.438Z,26.77
2018-11-07T01:28:46.537Z,28.42
2018-11-07T01:31:18.598Z,27.27
2018-11-07T01:33:50.687Z,30.32
2018-11-07T01:36:22.800Z,31.48
2018-11-07T01:38:54.873Z,26.75
2018-11-07T01:41:26.964Z,31.73
2018-11-07T01:43:58.990Z,27.62
2018-11-07T01:46:31.111Z,26.60
2018-11-07T01:49:03.366Z,26.68
2018-11-07T01:51:35.440Z,23.62
2018-11-07T01:54:07.533Z,26.97
2018-11-07T01:56:39.682Z,26.42
2018-11-07T01:59:11.708Z,27.30
2018-11-07T02:01:43.827Z,29.10
2018-11-07T02:04:15.940Z,24.50
2018-11-07T02:06:48.057Z,24.05
2018-11-07T02:09:20.133Z,27.85
2018-11-07T02:11:52.337Z,26.42
2018-11-07T02:14:24.371Z,28.00
2018-11-07T02:16:56.479Z,30.05
2018-11-07T02:19:28.637Z,23.52
2018-11-07T02:22:00.719Z,25.85
2018-11-07T02:24:32.840Z,30.37
2018-11-07T02:27:05.005Z,27.17
2018-11-07T02:29:37.046Z,28.10
2018-11-07T02:32:09.113Z,28.35
2018-11-07T02:34:41.256Z,28.60
2018-11-07T02:37:13.366Z,29.65
2018-11-07T02:39:45.416Z,31.10
2018-11-07T02:42:17.466Z,32.78
2018-11-07T02:44:49.483Z,39.78
2018-11-07T02:47:21.555Z,27.55
2018-11-07T02:49:53.574Z,35.17
2018-11-07T02:52:25.691Z,28.95
2018-11-07T02:54:57.836Z,55.55
2018-11-07T02:57:29.911Z,31.60
2018-11-07T03:00:02.092Z,27.60
2018-11-07T03:02:34.175Z,41.30
2018-11-07T03:05:06.243Z,29.70
2018-11-07T03:07:39.437Z,31.77
2018-11-07T03:10:12.540Z,31.82
2018-11-07T03:12:44.624Z,26.42
2018-11-07T03:15:16.718Z,23.80
2018-11-07T03:17:48.878Z,23.35
2018-11-07T03:20:20.979Z,31.65
2018-11-07T03:22:53.122Z,30.30
2018-11-07T03:25:25.192Z,30.17
2018-11-07T03:27:57.347Z,27.87
2018-11-07T03:30:29.445Z,22.62
2018-11-07T03:33:01.533Z,23.77
2018-11-07T03:35:33.670Z,20.62
2018-11-07T03:38:05.811Z,19.25
2018-11-07T03:40:37.896Z,23.73
2018-11-07T03:43:10.036Z,25.77
2018-11-07T03:45:47.951Z,21.62
2018-11-07T03:48:20.181Z,19.42
2018-11-07T03:50:52.299Z,20.27
2018-11-07T03:53:24.778Z,25.77
2018-11-07T03:55:56.979Z,29.75
2018-11-07T03:58:29.125Z,26.60
2018-11-07T04:01:01.225Z,21.60
2018-11-07T04:03:33.348Z,31.25
2018-11-07T04:06:05.607Z,22.55
2018-11-07T04:08:37.709Z,24.70
2018-11-07T04:11:09.767Z,46.68
2018-11-07T04:13:41.923Z,27.25
2018-11-07T04:16:14.027Z,34.40
2018-11-07T04:18:46.115Z,29.45
2018-11-07T04:21:18.182Z,25.55
2018-11-07T04:24:08.224Z,41.83
2018-11-07T04:26:40.434Z,28.07
2018-11-07T04:29:12.518Z,45.83
2018-11-07T04:31:44.577Z,20.72
2018-11-07T04:34:16.648Z,20.10
2018-11-07T04:36:48.704Z,32.63
2018-11-07T04:39:20.824Z,19.92
2018-11-07T04:41:52.884Z,20.88
2018-11-07T04:44:25.002Z,18.42
2018-11-07T04:46:57.080Z,29.37
2018-11-07T04:49:29.132Z,18.17
2018-11-07T04:52:01.176Z,23.98
2018-11-07T04:54:33.275Z,22.50
2018-11-07T04:57:05.552Z,22.17
2018-11-07T04:59:37.633Z,20.45
2018-11-07T05:02:09.653Z,22.87
2018-11-07T05:04:41.788Z,29.10
2018-11-07T05:07:13.861Z,23.62
2018-11-07T05:09:45.984Z,22.62
2018-11-07T05:12:18.076Z,21.60
2018-11-07T05:14:50.191Z,23.12
2018-11-07T05:17:22.255Z,26.00
2018-11-07T05:19:54.444Z,29.45
2018-11-07T05:22:26.532Z,17.42
2018-11-07T05:24:58.630Z,63.17
2018-11-07T05:27:30.742Z,32.85
2018-11-07T05:30:02.920Z,25.35
2018-11-07T05:32:35.076Z,36.08
2018-11-07T05:35:07.253Z,29.77
2018-11-07T05:37:39.479Z,21.93
2018-11-07T05:40:11.563Z,28.92
2018-11-07T05:42:43.767Z,20.32
2018-11-07T05:45:15.867Z,25.62
2018-11-07T05:47:47.973Z,24.70
2018-11-07T05:50:20.072Z,27.98
2018-11-07T05:52:52.164Z,24.50
2018-11-07T05:55:24.325Z,38.65
2018-11-07T05:57:56.397Z,37.08
2018-11-07T06:00:28.516Z,24.75
2018-11-07T06:03:00.612Z,35.48
2018-11-07T06:05:32.738Z,35.70
2018-11-07T06:08:04.877Z,24.77
2018-11-07T06:10:36.977Z,31.45
2018-11-07T06:13:09.052Z,29.90
2018-11-07T06:15:41.121Z,28.10
2018-11-07T06:18:13.146Z,56.10
2018-11-07T06:20:45.332Z,27.80
2018-11-07T06:23:17.496Z,49.48
2018-11-07T06:25:49.598Z,34.20
2018-11-07T06:28:21.673Z,39.18
2018-11-07T06:30:53.728Z,53.30
2018-11-07T06:33:25.823Z,43.87
2018-11-07T06:35:58.753Z,36.60
2018-11-07T06:38:31.852Z,29.23
2018-11-07T06:41:04.124Z,25.30
2018-11-07T06:43:36.319Z,33.65
2018-11-07T06:46:08.467Z,35.68
2018-11-07T06:48:40.583Z,32.50
2018-11-07T06:51:12.685Z,43.92
2018-11-07T06:53:44.758Z,35.25
2018-11-07T06:56:16.872Z,26.97
2018-11-07T06:58:49.012Z,59.58
2018-11-07T07:01:21.126Z,20.80
2018-11-07T07:03:53.200Z,22.07
2018-11-07T07:06:25.272Z,48.70
2018-11-07T07:08:57.507Z,53.85
2018-11-07T07:11:29.607Z,30.90
2018-11-07T07:14:01.683Z,23.27
2018-11-07T07:16:34.338Z,72.35
2018-11-07T07:19:06.433Z,34.30
2018-11-07T07:21:38.554Z,45.15
2018-11-07T07:24:11.447Z,35.65
2018-11-07T07:26:43.550Z,25.85
2018-11-07T07:29:15.640Z,30.88
2018-11-07T07:31:49.277Z,35.92
2018-11-07T07:34:21.452Z,42.90
2018-11-07T07:36:53.926Z,36.45
2018-11-07T07:39:26.093Z,25.48
2018-11-07T07:41:58.270Z,33.13
2018-11-07T07:44:30.989Z,30.62
2018-11-07T07:47:03.259Z,32.00
2018-11-07T07:49:36.391Z,29.57
2018-11-07T07:52:09.043Z,38.20
2018-11-07T07:54:42.230Z,28.45
2018-11-07T07:57:15.384Z,26.93
2018-11-07T07:59:47.638Z,31.52
2018-11-07T08:02:20.704Z,29.23
2018-11-07T08:04:53.982Z,35.52
2018-11-07T08:07:26.125Z,35.00
2018-11-07T08:09:59.415Z,42.30
2018-11-07T08:12:32.331Z,37.67
2018-11-07T08:15:05.969Z,45.40
2018-11-07T08:17:40.169Z,37.83
2018-11-07T08:20:13.798Z,40.88
2018-11-07T08:22:46.575Z,41.50
2018-11-07T08:25:20.760Z,35.52
2018-11-07T08:27:52.925Z,47.33
2018-11-07T08:30:25.759Z,40.88
2018-11-07T08:32:58.524Z,30.62
2018-11-07T08:35:30.676Z,37.93
2018-11-07T08:38:02.867Z,42.70
2018-11-07T08:40:35.013Z,43.08
2018-11-07T08:43:07.186Z,39.55
2018-11-07T08:45:39.992Z,45.60
2018-11-07T08:48:12.166Z,46.40
2018-11-07T08:50:44.325Z,43.20
2018-11-07T08:53:16.480Z,42.43
2018-11-07T08:55:48.615Z,42.07
2018-11-07T08:58:21.100Z,42.13
2018-11-07T09:00:53.269Z,42.97
2018-11-07T09:03:25.377Z,38.00
2018-11-07T09:05:58.235Z,39.80
2018-11-07T09:08:30.511Z,46.23
2018-11-07T09:11:02.726Z,43.47
2018-11-07T09:13:35.199Z,42.33
2018-11-07T09:16:07.348Z,48.10
2018-11-07T09:18:40.404Z,37.07
2018-11-07T09:21:12.490Z,37.53
2018-11-07T09:23:44.586Z,48.03
2018-11-07T09:26:16.687Z,41.47
2018-11-07T09:28:48.812Z,39.10
2018-11-07T09:31:21.488Z,40.27
2018-11-07T09:33:53.596Z,32.53
2018-11-07T09:36:25.661Z,36.13
2018-11-07T09:38:58.682Z,40.07
2018-11-07T09:41:30.729Z,36.13
2018-11-07T09:44:02.866Z,43.67
2018-11-07T09:46:35.134Z,35.87
2018-11-07T09:49:07.205Z,42.53
2018-11-07T09:51:39.324Z,35.17
2018-11-07T09:54:11.450Z,34.47
2018-11-07T09:56:44.114Z,43.10
2018-11-07T09:59:16.785Z,35.43
2018-11-07T10:01:48.923Z,37.67
2018-11-07T10:04:20.967Z,36.03
2018-11-07T10:06:53.058Z,30.67
2018-11-07T10:09:25.234Z,35.00
2018-11-07T10:11:57.329Z,32.27
2018-11-07T10:14:29.453Z,31.30
2018-11-07T10:17:01.584Z,38.07
2018-11-07T10:19:33.660Z,32.50
2018-11-07T10:22:05.795Z,31.23
2018-11-07T10:24:38.988Z,35.90
2018-11-07T10:27:11.325Z,37.97
2018-11-07T10:29:44.009Z,33.03
2018-11-07T10:32:15.868Z,32.83
2018-11-07T10:34:48.680Z,34.73
2018-11-07T10:37:32.140Z,34.07
2018-11-07T10:39:52.937Z,36.27
2018-11-07T10:42:25.257Z,32.73
2018-11-07T10:46:26.969Z,33.73
2018-11-07T10:49:00.165Z,35.60
2018-11-07T10:51:32.372Z,31.90
2018-11-07T10:54:05.520Z,28.63
2018-11-07T10:56:37.634Z,31.50
2018-11-07T10:59:09.780Z,32.00
2018-11-07T11:01:47.803Z,31.07
2018-11-07T11:04:19.954Z,33.63
2018-11-07T11:06:52.113Z,28.07
2018-11-07T11:09:24.219Z,29.33
2018-11-07T11:11:56.260Z,30.20
2018-11-07T11:14:28.273Z,28.37
2018-11-07T11:17:01.477Z,30.50
2018-11-07T11:19:33.434Z,27.50
2018-11-07T11:22:06.232Z,29.63
2018-11-07T11:24:38.332Z,28.50
2018-11-07T11:27:10.442Z,26.93
2018-11-07T11:29:42.440Z,25.37
2018-11-07T11:32:14.501Z,27.97
2018-11-07T11:34:46.579Z,24.10
2018-11-07T11:37:18.574Z,25.13
2018-11-07T11:39:53.601Z,26.17
2018-11-07T11:42:25.636Z,27.50
2018-11-07T11:44:57.788Z,25.20
2018-11-07T11:47:29.933Z,26.80
2018-11-07T11:50:02.301Z,28.03
2018-11-07T11:52:34.372Z,25.43
2018-11-07T11:55:07.274Z,26.33
2018-11-07T11:57:40.249Z,25.70
2018-11-07T12:00:14.931Z,63.33
2018-11-07T12:02:46.927Z,27.40
2018-11-07T12:05:19.400Z,25.67
2018-11-07T12:07:51.880Z,24.33
2018-11-07T12:10:25.028Z,24.47
2018-11-07T12:12:57.658Z,30.37
2018-11-07T12:15:29.775Z,26.13
2018-11-07T12:18:01.855Z,26.73
2018-11-07T12:20:34.019Z,22.77
2018-11-07T12:23:06.075Z,24.53
2018-11-07T12:25:38.816Z,24.50
2018-11-07T12:28:10.885Z,23.20
2018-11-07T12:30:43.115Z,26.10
2018-11-07T12:33:15.794Z,28.30
2018-11-07T12:35:48.941Z,28.17
2018-11-07T12:38:21.112Z,25.30
2018-11-07T12:40:53.338Z,25.60
2018-11-07T12:43:25.482Z,27.80
2018-11-07T12:45:57.652Z,22.23
2018-11-07T12:48:29.790Z,26.33
2018-11-07T12:51:01.945Z,24.83
2018-11-07T12:53:34.104Z,25.57
2018-11-07T12:56:07.409Z,29.73
2018-11-07T12:58:40.564Z,25.90
2018-11-07T13:01:12.691Z,34.83
2018-11-07T13:03:44.851Z,28.80
2018-11-07T13:06:17.024Z,31.10
2018-11-07T13:08:49.137Z,28.70
2018-11-07T13:11:21.375Z,29.00
2018-11-07T13:13:53.355Z,29.60
2018-11-07T13:16:25.460Z,28.00
2018-11-07T13:18:58.570Z,28.50
2018-11-07T13:21:30.702Z,29.50
2018-11-07T13:24:02.821Z,27.17
2018-11-07T13:26:34.915Z,28.80
2018-11-07T13:29:07.017Z,26.90
2018-11-07T13:31:39.151Z,28.27
2018-11-07T13:34:12.028Z,24.37
2018-11-07T13:36:45.494Z,31.00
2018-11-07T13:39:17.760Z,28.30
2018-11-07T13:41:49.616Z,26.67
2018-11-07T13:44:22.316Z,28.90
2018-11-07T13:46:54.861Z,27.90
2018-11-07T13:49:27.547Z,25.73
2018-11-07T13:51:59.653Z,24.40
2018-11-07T13:54:31.683Z,27.93
2018-11-07T13:57:04.561Z,27.07
2018-11-07T13:59:37.322Z,25.80
2018-11-07T14:02:09.452Z,25.60
2018-11-07T14:04:41.570Z,25.90
2018-11-07T14:07:13.682Z,26.53
2018-11-07T14:09:45.893Z,28.70
2018-11-07T14:12:17.980Z,25.30
2018-11-07T14:14:50.073Z,23.50
2018-11-07T14:17:22.214Z,24.90
2018-11-07T14:19:54.280Z,26.20
2018-11-07T14:22:27.390Z,27.10
2018-11-07T14:25:00.087Z,24.87
2018-11-07T14:27:32.728Z,27.37
2018-11-07T14:30:10.258Z,24.70
2018-11-07T14:32:44.504Z,27.27
2018-11-07T14:35:16.529Z,26.47
2018-11-07T14:37:48.627Z,23.53
2018-11-07T14:40:20.802Z,26.70
2018-11-07T14:42:53.975Z,27.67
2018-11-07T14:45:26.578Z,24.60
2018-11-07T14:47:58.711Z,26.13
2018-11-07T14:50:31.415Z,29.10
2018-11-07T14:53:04.305Z,28.40
2018-11-07T14:55:36.374Z,28.07
2018-11-07T14:58:08.406Z,25.90
2018-11-07T15:00:40.502Z,31.83
2018-11-07T15:03:12.748Z,30.03
2018-11-07T15:05:45.022Z,28.23
2018-11-07T15:08:16.934Z,32.27
2018-11-07T15:10:49.009Z,29.37
2018-11-07T15:13:21.927Z,27.23
2018-11-07T15:15:54.041Z,29.40
2018-11-07T15:18:27.413Z,26.60
2018-11-07T15:20:59.921Z,29.50
2018-11-07T15:23:32.041Z,29.87
2018-11-07T15:26:04.640Z,32.83
2018-11-07T15:28:36.811Z,32.57
2018-11-07T15:31:08.924Z,33.90
2018-11-07T15:33:41.054Z,27.03
2018-11-07T15:36:13.375Z,28.97
2018-11-07T15:38:45.397Z,32.73
2018-11-07T15:41:17.496Z,28.00
2018-11-07T15:43:49.605Z,29.70
2018-11-07T15:46:21.716Z,29.87
2018-11-07T15:48:53.822Z,32.87
2018-11-07T15:51:31.768Z,33.03
2018-11-07T15:54:04.454Z,39.03
2018-11-07T15:56:36.611Z,36.17
2018-11-07T15:59:08.684Z,33.60
2018-11-07T16:01:40.764Z,36.03
2018-11-07T16:04:14.056Z,35.80
2018-11-07T16:06:46.268Z,33.05
2018-11-07T16:09:18.388Z,34.87
2018-11-07T16:11:50.557Z,36.28
2018-11-07T16:14:22.742Z,33.60
2018-11-07T16:16:55.052Z,37.60
2018-11-07T16:19:27.449Z,37.90
2018-11-07T16:22:00.768Z,39.60
2018-11-07T16:24:35.050Z,36.87
2018-11-07T16:27:07.505Z,38.23
2018-11-07T16:29:39.677Z,40.55
2018-11-07T16:32:11.808Z,43.30
2018-11-07T16:34:43.930Z,41.20
2018-11-07T16:37:16.144Z,38.40
2018-11-07T16:39:48.268Z,43.43
2018-11-07T16:42:20.440Z,48.48
2018-11-07T16:44:52.637Z,44.63
2018-11-07T16:47:25.643Z,53.58
2018-11-07T16:49:57.772Z,42.10
2018-11-07T16:52:30.033Z,49.23
2018-11-07T16:55:02.204Z,50.12
2018-11-07T16:57:35.040Z,41.18
2018-11-07T17:00:12.478Z,50.63
2018-11-07T17:02:45.860Z,48.78
2018-11-07T17:05:18.480Z,46.53
2018-11-07T17:07:51.677Z,57.40
2018-11-07T17:10:23.879Z,41.07
2018-11-07T17:12:55.997Z,47.63
2018-11-07T17:15:28.080Z,46.30
2018-11-07T17:18:00.184Z,42.13
2018-11-07T17:20:32.357Z,46.23
2018-11-07T17:23:04.447Z,43.93
2018-11-07T17:25:36.541Z,43.00
2018-11-07T17:28:08.608Z,37.77
2018-11-07T17:30:40.768Z,41.43
2018-11-07T17:33:13.220Z,44.20
2018-11-07T17:35:45.316Z,47.48
2018-11-07T17:38:17.424Z,46.40
2018-11-07T17:40:49.481Z,52.10
2018-11-07T17:43:21.669Z,46.07
2018-11-07T17:45:53.756Z,43.43
2018-11-07T17:48:25.927Z,46.68
2018-11-07T17:50:58.220Z,41.20
2018-11-07T17:53:30.441Z,47.67
2018-11-07T17:56:02.849Z,44.53
2018-11-07T17:58:35.108Z,43.07
2018-11-07T18:01:07.492Z,44.07
2018-11-07T18:03:40.018Z,39.80
2018-11-07T18:06:13.652Z,44.00
2018-11-07T18:08:46.266Z,44.60
2018-11-07T18:11:18.388Z,44.43
2018-11-07T18:13:50.964Z,44.40
2018-11-07T18:16:23.399Z,48.50
2018-11-07T18:18:55.951Z,46.90
2018-11-07T18:21:28.557Z,43.07
2018-11-07T18:24:00.871Z,42.83
2018-11-07T18:26:33.709Z,45.93
2018-11-07T18:29:06.452Z,42.67
2018-11-07T18:31:39.332Z,41.92
2018-11-07T18:34:11.836Z,43.98
2018-11-07T18:36:44.284Z,42.17
2018-11-07T18:39:16.657Z,40.43
2018-11-07T18:41:48.818Z,40.90
2018-11-07T18:44:21.488Z,47.90
2018-11-07T18:46:54.285Z,38.27
2018-11-07T18:49:26.679Z,49.75
2018-11-07T18:51:59.066Z,44.45
2018-11-07T18:54:32.427Z,40.97
2018-11-07T18:57:05.232Z,42.25
2018-11-07T18:59:38.676Z,47.67
2018-11-07T19:02:11.163Z,43.97
2018-11-07T19:04:43.619Z,44.10
2018-11-07T19:07:16.050Z,47.17
2018-11-07T19:09:48.403Z,43.67
2018-11-07T19:12:22.249Z,51.15
2018-11-07T19:14:55.482Z,46.95
2018-11-07T19:17:28.482Z,47.03
2018-11-07T19:20:00.698Z,49.83
2018-11-07T19:22:32.921Z,50.10
2018-11-07T19:25:07.349Z,43.13
2018-11-07T19:27:39.572Z,48.15
2018-11-07T19:30:13.839Z,49.53
2018-11-07T19:32:47.366Z,47.87
2018-11-07T19:35:19.953Z,49.50
2018-11-07T19:37:52.256Z,42.07
2018-11-07T19:40:25.443Z,45.40
2018-11-07T19:42:57.509Z,56.45
2018-11-07T19:45:29.659Z,51.42
2018-11-07T19:48:01.796Z,48.30
2018-11-07T19:50:33.986Z,53.20
2018-11-07T19:53:06.229Z,49.13
2018-11-07T19:55:38.312Z,53.50
2018-11-07T19:58:10.414Z,42.57
2018-11-07T20:00:42.706Z,43.17
2018-11-07T20:03:14.790Z,45.40
2018-11-07T20:05:46.911Z,47.00
2018-11-07T20:08:19.241Z,45.20
2018-11-07T20:10:51.288Z,48.20
2018-11-07T20:13:23.387Z,50.97
2018-11-07T20:15:56.976Z,44.17
2018-11-07T20:18:29.072Z,42.40
2018-11-07T20:21:01.183Z,47.27
2018-11-07T20:23:33.348Z,41.73
2018-11-07T20:26:05.420Z,43.23
2018-11-07T20:28:37.601Z,47.67
2018-11-07T20:31:09.716Z,42.55
2018-11-07T20:33:41.829Z,51.63
2018-11-07T20:36:13.933Z,48.23
2018-11-07T20:38:47.057Z,49.03
2018-11-07T20:41:19.272Z,48.83
2018-11-07T20:43:51.289Z,48.70
2018-11-07T20:46:23.426Z,56.37
2018-11-07T20:48:55.616Z,53.33
2018-11-07T20:51:27.703Z,52.47
2018-11-07T20:54:00.148Z,53.67
2018-11-07T20:56:32.249Z,46.13
2018-11-07T20:59:04.756Z,56.53
2018-11-07T21:01:36.930Z,54.50
2018-11-07T21:04:09.099Z,47.88
2018-11-07T21:06:41.269Z,50.50
2018-11-07T21:09:13.391Z,54.23
2018-11-07T21:11:45.540Z,49.73
2018-11-07T21:14:17.760Z,55.70
2018-11-07T21:16:50.020Z,55.90
2018-11-07T21:19:22.100Z,49.27
2018-11-07T21:21:54.292Z,49.40
2018-11-07T21:24:26.496Z,47.53
2018-11-07T21:26:59.044Z,48.45
2018-11-07T21:29:31.227Z,52.93
2018-11-07T21:32:03.785Z,45.23
2018-11-07T21:34:36.011Z,49.60
2018-11-07T21:37:08.236Z,46.50
2018-11-07T21:39:40.444Z,44.20
2018-11-07T21:42:12.664Z,45.30
2018-11-07T21:44:44.826Z,51.70
2018-11-07T21:47:17.359Z,51.67
2018-11-07T21:49:49.503Z,51.18
2018-11-07T21:52:21.645Z,49.93
2018-11-07T21:54:53.932Z,52.53
2018-11-07T21:57:26.000Z,50.58
2018-11-07T21:59:58.215Z,49.03
2018-11-07T22:02:30.324Z,54.03
2018-11-07T22:05:02.465Z,61.20
2018-11-07T22:07:34.661Z,47.20
2018-11-07T22:10:08.164Z,47.10
2018-11-07T22:12:40.308Z,43.75
2018-11-07T22:15:12.517Z,59.20
2018-11-07T22:17:44.707Z,46.98
2018-11-07T22:20:18.493Z,44.95
2018-11-07T22:22:50.578Z,47.10
2018-11-07T22:25:22.666Z,41.63
2018-11-07T22:27:54.787Z,43.48
2018-11-07T22:30:27.009Z,44.00
2018-11-07T22:32:59.145Z,49.43
2018-11-07T22:35:31.393Z,54.63
2018-11-07T22:38:03.607Z,44.18
2018-11-07T22:40:35.856Z,42.25
2018-11-07T22:43:08.223Z,37.63
2018-11-07T22:45:40.334Z,47.08
2018-11-07T22:48:12.409Z,43.80
2018-11-07T22:50:44.537Z,49.75
2018-11-07T22:53:16.646Z,47.93
2018-11-07T22:55:48.857Z,46.20
2018-11-07T22:58:20.961Z,40.58
2018-11-07T23:00:57.010Z,40.00
2018-11-07T23:03:29.406Z,39.25
2018-11-07T23:06:01.522Z,40.40
2018-11-07T23:08:33.657Z,44.35
2018-11-07T23:11:05.783Z,37.58
2018-11-07T23:13:37.860Z,47.73
2018-11-07T23:16:10.573Z,38.98
2018-11-07T23:18:42.739Z,36.63
2018-11-07T23:21:14.836Z,34.38
2018-11-07T23:23:48.400Z,38.05
2018-11-07T23:26:20.655Z,37.10
2018-11-07T23:28:52.777Z,47.90
2018-11-07T23:31:25.690Z,43.48
2018-11-07T23:33:58.372Z,36.67
2018-11-07T23:36:30.595Z,38.23
2018-11-07T23:39:03.786Z,33.70
2018-11-07T23:41:35.872Z,34.40
2018-11-07T23:44:07.945Z,31.90
2018-11-07T23:46:40.115Z,28.65
2018-11-07T23:49:12.256Z,37.85
2018-11-07T23:51:49.201Z,32.93
2018-11-07T23:54:21.596Z,34.45
2018-11-07T23:56:53.670Z,31.07
2018-11-07T23:59:25.750Z,32.67
